sensor_id;sensor_type;location;lat;lon;timestamp;pressure;altitude;pressure_sealevel;temperature;humidity
41632;BME280;37452;51.938;4.624;2023-07-22T00:00:26;76312.44;;;-142.75;100.00
41632;BME280;37452;51.938;4.624;2023-07-22T00:02:51;76318.34;;;-142.75;100.00
41632;BME280;37452;51.938;4.624;2023-07-22T00:05:17;76320.31;;;-142.75;100.00
41632;BME280;37452;51.938;4.624;2023-07-22T00:07:48;76320.31;;;-142.75;100.00
41632;BME280;37452;51.938;4.624;2023-07-22T00:10:13;76328.19;;;-142.75;100.00
41632;BME280;37452;51.938;4.624;2023-07-22T00:12:38;76332.13;;;-142.75;100.00
41632;BME280;37452;51.938;4.624;2023-07-22T00:15:04;76334.09;;;-142.75;100.00
41632;BME280;37452;51.938;4.624;2023-07-22T00:17:31;76332.13;;;-142.75;100.00
41632;BME280;37452;51.938;4.624;2023-07-22T00:19:56;76330.16;;;-142.75;100.00
41632;BME280;37452;51.938;4.624;2023-07-22T00:22:22;76330.16;;;-142.75;100.00
41632;BME280;37452;51.938;4.624;2023-07-22T00:24:47;76332.13;;;-142.75;100.00
41632;BME280;37452;51.938;4.624;2023-07-22T00:27:13;76338.03;;;-142.75;100.00
41632;BME280;37452;51.938;4.624;2023-07-22T00:29:38;76334.09;;;-142.75;100.00
41632;BME280;37452;51.938;4.624;2023-07-22T00:32:05;76320.31;;;-142.75;100.00
41632;BME280;37452;51.938;4.624;2023-07-22T00:34:32;76326.22;;;-142.75;100.00
41632;BME280;37452;51.938;4.624;2023-07-22T00:36:57;76330.16;;;-142.75;100.00
41632;BME280;37452;51.938;4.624;2023-07-22T00:39:23;76322.28;;;-142.75;100.00
41632;BME280;37452;51.938;4.624;2023-07-22T00:41:48;76330.16;;;-142.75;100.00
41632;BME280;37452;51.938;4.624;2023-07-22T00:44:13;76330.16;;;-142.75;100.00
41632;BME280;37452;51.938;4.624;2023-07-22T00:46:39;76340.00;;;-142.75;100.00
41632;BME280;37452;51.938;4.624;2023-07-22T00:49:06;76334.09;;;-142.75;100.00
41632;BME280;37452;51.938;4.624;2023-07-22T00:51:32;76330.16;;;-142.75;100.00
41632;BME280;37452;51.938;4.624;2023-07-22T00:53:57;76328.19;;;-142.75;100.00
41632;BME280;37452;51.938;4.624;2023-07-22T00:56:23;76326.22;;;-142.75;100.00
41632;BME280;37452;51.938;4.624;2023-07-22T00:58:48;76330.16;;;-142.75;100.00
41632;BME280;37452;51.938;4.624;2023-07-22T01:01:14;76328.19;;;-142.75;100.00
41632;BME280;37452;51.938;4.624;2023-07-22T01:03:39;76326.22;;;-142.75;100.00
41632;BME280;37452;51.938;4.624;2023-07-22T01:06:06;76328.19;;;-142.75;100.00
41632;BME280;37452;51.938;4.624;2023-07-22T01:08:32;76330.16;;;-142.75;100.00
41632;BME280;37452;51.938;4.624;2023-07-22T01:10:57;76338.03;;;-142.75;100.00
41632;BME280;37452;51.938;4.624;2023-07-22T01:13:24;76355.72;;;-142.75;100.00
41632;BME280;37452;51.938;4.624;2023-07-22T01:15:49;76332.13;;;-142.75;100.00
41632;BME280;37452;51.938;4.624;2023-07-22T01:18:15;76318.34;;;-142.75;100.00
41632;BME280;37452;51.938;4.624;2023-07-22T01:20:41;76304.56;;;-142.75;100.00
41632;BME280;37452;51.938;4.624;2023-07-22T01:23:07;76306.53;;;-142.75;100.00
41632;BME280;37452;51.938;4.624;2023-07-22T01:25:33;76322.28;;;-142.75;100.00
41632;BME280;37452;51.938;4.624;2023-07-22T01:27:58;76306.53;;;-142.75;100.00
41632;BME280;37452;51.938;4.624;2023-07-22T01:30:24;76304.56;;;-142.75;100.00
41632;BME280;37452;51.938;4.624;2023-07-22T01:32:50;76300.63;;;-142.75;100.00
41632;BME280;37452;51.938;4.624;2023-07-22T01:35:15;76294.72;;;-142.75;100.00
41632;BME280;37452;51.938;4.624;2023-07-22T01:37:41;76304.56;;;-142.75;100.00
41632;BME280;37452;51.938;4.624;2023-07-22T01:40:07;76302.59;;;-142.75;100.00
41632;BME280;37452;51.938;4.624;2023-07-22T01:42:40;76314.41;;;-142.75;100.00
41632;BME280;37452;51.938;4.624;2023-07-22T01:45:06;76318.34;;;-142.75;100.00
41632;BME280;37452;51.938;4.624;2023-07-22T01:47:33;76320.31;;;-142.75;100.00
41632;BME280;37452;51.938;4.624;2023-07-22T01:49:59;76328.19;;;-142.75;100.00
41632;BME280;37452;51.938;4.624;2023-07-22T01:52:24;76340.00;;;-142.75;100.00
41632;BME280;37452;51.938;4.624;2023-07-22T01:54:50;76338.03;;;-142.75;100.00
41632;BME280;37452;51.938;4.624;2023-07-22T01:57:15;76338.03;;;-142.75;100.00
41632;BME280;37452;51.938;4.624;2023-07-22T01:59:41;76332.13;;;-142.75;100.00
41632;BME280;37452;51.938;4.624;2023-07-22T02:02:06;76332.13;;;-142.75;100.00
41632;BME280;37452;51.938;4.624;2023-07-22T02:04:31;76328.19;;;-142.75;100.00
41632;BME280;37452;51.938;4.624;2023-07-22T02:06:56;76330.16;;;-142.75;100.00
41632;BME280;37452;51.938;4.624;2023-07-22T02:09:22;76334.09;;;-142.75;100.00
41632;BME280;37452;51.938;4.624;2023-07-22T02:11:47;76332.13;;;-142.75;100.00
41632;BME280;37452;51.938;4.624;2023-07-22T02:14:13;76334.09;;;-142.75;100.00
41632;BME280;37452;51.938;4.624;2023-07-22T02:16:38;76334.09;;;-142.75;100.00
41632;BME280;37452;51.938;4.624;2023-07-22T02:19:04;76326.22;;;-142.75;100.00
41632;BME280;37452;51.938;4.624;2023-07-22T02:21:30;76332.13;;;-142.75;100.00
41632;BME280;37452;51.938;4.624;2023-07-22T02:23:55;76326.22;;;-142.75;100.00
41632;BME280;37452;51.938;4.624;2023-07-22T02:26:20;76353.78;;;-142.75;100.00
41632;BME280;37452;51.938;4.624;2023-07-22T02:28:46;76340.00;;;-142.75;100.00
41632;BME280;37452;51.938;4.624;2023-07-22T02:31:12;76334.09;;;-142.75;100.00
41632;BME280;37452;51.938;4.624;2023-07-22T02:33:37;76341.97;;;-142.75;100.00
41632;BME280;37452;51.938;4.624;2023-07-22T02:36:03;76334.09;;;-142.75;100.00
41632;BME280;37452;51.938;4.624;2023-07-22T02:38:28;76328.19;;;-142.75;100.00
41632;BME280;37452;51.938;4.624;2023-07-22T02:40:54;76334.09;;;-142.75;100.00
41632;BME280;37452;51.938;4.624;2023-07-22T02:43:19;76355.72;;;-142.75;100.00
41632;BME280;37452;51.938;4.624;2023-07-22T02:45:45;76341.97;;;-142.75;100.00
41632;BME280;37452;51.938;4.624;2023-07-22T02:48:10;76345.91;;;-142.75;100.00
41632;BME280;37452;51.938;4.624;2023-07-22T02:50:35;76369.50;;;-142.75;100.00
41632;BME280;37452;51.938;4.624;2023-07-22T02:53:02;76361.63;;;-142.75;100.00
41632;BME280;37452;51.938;4.624;2023-07-22T02:55:27;76357.69;;;-142.75;100.00
41632;BME280;37452;51.938;4.624;2023-07-22T02:57:53;76349.81;;;-142.75;100.00
41632;BME280;37452;51.938;4.624;2023-07-22T03:00:19;76353.78;;;-142.75;100.00
41632;BME280;37452;51.938;4.624;2023-07-22T03:02:52;76353.78;;;-142.75;100.00
41632;BME280;37452;51.938;4.624;2023-07-22T03:05:18;76347.84;;;-142.75;100.00
41632;BME280;37452;51.938;4.624;2023-07-22T03:07:44;76353.78;;;-142.75;100.00
41632;BME280;37452;51.938;4.624;2023-07-22T03:10:09;76359.66;;;-142.75;100.00
41632;BME280;37452;51.938;4.624;2023-07-22T03:12:35;76363.59;;;-142.75;100.00
41632;BME280;37452;51.938;4.624;2023-07-22T03:15:01;76361.63;;;-142.75;100.00
41632;BME280;37452;51.938;4.624;2023-07-22T03:17:29;76365.56;;;-142.75;100.00
41632;BME280;37452;51.938;4.624;2023-07-22T03:19:54;76375.41;;;-142.75;100.00
41632;BME280;37452;51.938;4.624;2023-07-22T03:22:20;76369.50;;;-142.75;100.00
41632;BME280;37452;51.938;4.624;2023-07-22T03:24:45;76359.66;;;-142.75;100.00
41632;BME280;37452;51.938;4.624;2023-07-22T03:27:11;76351.81;;;-142.75;100.00
41632;BME280;37452;51.938;4.624;2023-07-22T03:29:38;76347.84;;;-142.75;100.00
41632;BME280;37452;51.938;4.624;2023-07-22T03:32:04;76349.81;;;-142.75;100.00
41632;BME280;37452;51.938;4.624;2023-07-22T03:34:30;76361.63;;;-142.75;100.00
41632;BME280;37452;51.938;4.624;2023-07-22T03:36:56;76353.78;;;-142.75;100.00
41632;BME280;37452;51.938;4.624;2023-07-22T03:39:21;76347.84;;;-142.75;100.00
41632;BME280;37452;51.938;4.624;2023-07-22T03:41:47;76349.81;;;-142.75;100.00
41632;BME280;37452;51.938;4.624;2023-07-22T03:44:12;76334.09;;;-142.75;100.00
41632;BME280;37452;51.938;4.624;2023-07-22T03:46:38;76318.34;;;-142.75;100.00
41632;BME280;37452;51.938;4.624;2023-07-22T03:49:04;76322.28;;;-142.75;100.00
41632;BME280;37452;51.938;4.624;2023-07-22T03:51:29;76341.97;;;-142.75;100.00
41632;BME280;37452;51.938;4.624;2023-07-22T03:53:54;76326.22;;;-142.75;100.00
41632;BME280;37452;51.938;4.624;2023-07-22T03:56:20;76345.91;;;-142.75;100.00
41632;BME280;37452;51.938;4.624;2023-07-22T03:58:45;76310.47;;;-142.75;100.00
41632;BME280;37452;51.938;4.624;2023-07-22T04:01:11;76314.41;;;-142.75;100.00
41632;BME280;37452;51.938;4.624;2023-07-22T04:03:37;76302.59;;;-142.75;100.00
41632;BME280;37452;51.938;4.624;2023-07-22T04:06:02;76304.56;;;-142.75;100.00
41632;BME280;37452;51.938;4.624;2023-07-22T04:08:28;76288.81;;;-142.75;100.00
41632;BME280;37452;51.938;4.624;2023-07-22T04:10:54;76288.81;;;-142.75;100.00
41632;BME280;37452;51.938;4.624;2023-07-22T04:13:20;76275.03;;;-142.75;100.00
41632;BME280;37452;51.938;4.624;2023-07-22T04:15:49;76267.16;;;-142.75;100.00
41632;BME280;37452;51.938;4.624;2023-07-22T04:18:15;76259.28;;;-142.75;100.00
41632;BME280;37452;51.938;4.624;2023-07-22T04:20:41;76263.22;;;-142.75;100.00
41632;BME280;37452;51.938;4.624;2023-07-22T04:23:06;76271.09;;;-142.75;100.00
41632;BME280;37452;51.938;4.624;2023-07-22T04:25:32;76263.22;;;-142.75;100.00
41632;BME280;37452;51.938;4.624;2023-07-22T04:27:57;76259.28;;;-142.75;100.00
41632;BME280;37452;51.938;4.624;2023-07-22T04:30:22;76271.09;;;-142.75;100.00
41632;BME280;37452;51.938;4.624;2023-07-22T04:32:49;76257.31;;;-142.75;100.00
41632;BME280;37452;51.938;4.624;2023-07-22T04:35:16;76273.06;;;-142.75;100.00
41632;BME280;37452;51.938;4.624;2023-07-22T04:37:43;76278.97;;;-142.75;100.00
41632;BME280;37452;51.938;4.624;2023-07-22T04:40:10;76296.69;;;-142.75;100.00
41632;BME280;37452;51.938;4.624;2023-07-22T04:42:40;76290.78;;;-142.75;100.00
41632;BME280;37452;51.938;4.624;2023-07-22T04:45:07;76277.00;;;-142.75;100.00
41632;BME280;37452;51.938;4.624;2023-07-22T04:47:33;76267.16;;;-142.75;100.00
41632;BME280;37452;51.938;4.624;2023-07-22T04:49:59;76261.25;;;-142.75;100.00
41632;BME280;37452;51.938;4.624;2023-07-22T04:52:24;76259.28;;;-142.75;100.00
41632;BME280;37452;51.938;4.624;2023-07-22T04:54:49;76277.00;;;-142.75;100.00
41632;BME280;37452;51.938;4.624;2023-07-22T04:57:15;76249.44;;;-142.75;100.00
41632;BME280;37452;51.938;4.624;2023-07-22T04:59:42;76239.59;;;-142.75;100.00
41632;BME280;37452;51.938;4.624;2023-07-22T05:02:07;76227.78;;;-142.75;100.00
41632;BME280;37452;51.938;4.624;2023-07-22T05:04:33;76210.06;;;-142.75;100.00
41632;BME280;37452;51.938;4.624;2023-07-22T05:06:58;76212.03;;;-142.75;100.00
41632;BME280;37452;51.938;4.624;2023-07-22T05:09:23;76215.97;;;-142.75;100.00
41632;BME280;37452;51.938;4.624;2023-07-22T05:11:49;76229.75;;;-142.75;100.00
41632;BME280;37452;51.938;4.624;2023-07-22T05:14:14;76208.09;;;-142.75;100.00
41632;BME280;37452;51.938;4.624;2023-07-22T05:16:40;76198.28;;;-142.75;100.00
41632;BME280;37452;51.938;4.624;2023-07-22T05:19:05;76192.38;;;-142.75;100.00
41632;BME280;37452;51.938;4.624;2023-07-22T05:21:33;76180.56;;;-142.75;100.00
41632;BME280;37452;51.938;4.624;2023-07-22T05:23:58;76176.63;;;-142.75;100.00
41632;BME280;37452;51.938;4.624;2023-07-22T05:26:23;76168.75;;;-142.75;100.00
41632;BME280;37452;51.938;4.624;2023-07-22T05:28:49;76166.78;;;-142.75;100.00
41632;BME280;37452;51.938;4.624;2023-07-22T05:31:15;76164.81;;;-142.75;100.00
41632;BME280;37452;51.938;4.624;2023-07-22T05:33:41;76164.81;;;-142.75;100.00
41632;BME280;37452;51.938;4.624;2023-07-22T05:36:06;76149.06;;;-142.75;100.00
41632;BME280;37452;51.938;4.624;2023-07-22T05:38:32;76125.44;;;-142.75;100.00
41632;BME280;37452;51.938;4.624;2023-07-22T05:40:57;76123.47;;;-142.75;100.00
41632;BME280;37452;51.938;4.624;2023-07-22T05:43:22;76113.63;;;-142.75;100.00
41632;BME280;37452;51.938;4.624;2023-07-22T05:45:48;76139.22;;;-142.75;100.00
41632;BME280;37452;51.938;4.624;2023-07-22T05:48:14;76141.19;;;-142.75;100.00
41632;BME280;37452;51.938;4.624;2023-07-22T05:50:39;76147.09;;;-142.75;100.00
41632;BME280;37452;51.938;4.624;2023-07-22T05:53:05;76125.44;;;-142.75;100.00
41632;BME280;37452;51.938;4.624;2023-07-22T05:55:30;76117.56;;;-142.75;100.00
41632;BME280;37452;51.938;4.624;2023-07-22T05:57:56;76117.56;;;-142.75;100.00
41632;BME280;37452;51.938;4.624;2023-07-22T06:00:21;76115.59;;;-142.75;100.00
41632;BME280;37452;51.938;4.624;2023-07-22T06:02:47;76101.81;;;-142.75;100.00
41632;BME280;37452;51.938;4.624;2023-07-22T06:05:13;76097.88;;;-142.75;100.00
41632;BME280;37452;51.938;4.624;2023-07-22T06:07:38;76082.13;;;-142.75;100.00
41632;BME280;37452;51.938;4.624;2023-07-22T06:10:05;76074.25;;;-142.75;100.00
41632;BME280;37452;51.938;4.624;2023-07-22T06:12:30;76074.25;;;-142.75;100.00
41632;BME280;37452;51.938;4.624;2023-07-22T06:14:56;76080.16;;;-142.75;100.00
41632;BME280;37452;51.938;4.624;2023-07-22T06:17:21;76076.22;;;-142.75;100.00
41632;BME280;37452;51.938;4.624;2023-07-22T06:19:47;76066.41;;;-142.75;100.00
41632;BME280;37452;51.938;4.624;2023-07-22T06:22:12;76062.47;;;-142.75;100.00
41632;BME280;37452;51.938;4.624;2023-07-22T06:24:38;76078.19;;;-142.75;100.00
41632;BME280;37452;51.938;4.624;2023-07-22T06:27:03;76066.41;;;-142.75;100.00
41632;BME280;37452;51.938;4.624;2023-07-22T06:29:29;76048.69;;;-142.75;100.00
41632;BME280;37452;51.938;4.624;2023-07-22T06:31:54;76032.94;;;-142.75;100.00
41632;BME280;37452;51.938;4.624;2023-07-22T06:34:19;76038.84;;;-142.75;100.00
41632;BME280;37452;51.938;4.624;2023-07-22T06:36:45;76042.78;;;-142.75;100.00
41632;BME280;37452;51.938;4.624;2023-07-22T06:39:10;76032.94;;;-142.75;100.00
41632;BME280;37452;51.938;4.624;2023-07-22T06:41:35;76015.22;;;-142.75;100.00
41632;BME280;37452;51.938;4.624;2023-07-22T06:44:01;76011.28;;;-142.75;100.00
41632;BME280;37452;51.938;4.624;2023-07-22T06:46:26;76005.38;;;-142.75;100.00
41632;BME280;37452;51.938;4.624;2023-07-22T06:48:51;75983.72;;;-142.75;100.00
41632;BME280;37452;51.938;4.624;2023-07-22T06:51:17;75971.91;;;-142.75;100.00
41632;BME280;37452;51.938;4.624;2023-07-22T06:53:42;75960.13;;;-142.75;100.00
41632;BME280;37452;51.938;4.624;2023-07-22T06:56:07;75960.13;;;-142.75;100.00
41632;BME280;37452;51.938;4.624;2023-07-22T06:58:33;75971.91;;;-142.75;100.00
41632;BME280;37452;51.938;4.624;2023-07-22T07:00:58;76003.41;;;-142.75;100.00
41632;BME280;37452;51.938;4.624;2023-07-22T07:03:24;75999.47;;;-142.75;100.00
41632;BME280;37452;51.938;4.624;2023-07-22T07:05:54;75989.63;;;-142.75;100.00
41632;BME280;37452;51.938;4.624;2023-07-22T07:08:19;75981.75;;;-142.75;100.00
41632;BME280;37452;51.938;4.624;2023-07-22T07:10:44;75983.72;;;-142.75;100.00
41632;BME280;37452;51.938;4.624;2023-07-22T07:13:10;75979.78;;;-142.75;100.00
41632;BME280;37452;51.938;4.624;2023-07-22T07:15:35;75952.25;;;-142.75;100.00
41632;BME280;37452;51.938;4.624;2023-07-22T07:18:00;75950.28;;;-142.75;100.00
41632;BME280;37452;51.938;4.624;2023-07-22T07:20:26;75954.22;;;-142.75;100.00
41632;BME280;37452;51.938;4.624;2023-07-22T07:22:51;75944.38;;;-142.75;100.00
41632;BME280;37452;51.938;4.624;2023-07-22T07:25:16;75932.56;;;-142.75;100.00
41632;BME280;37452;51.938;4.624;2023-07-22T07:27:42;75930.59;;;-142.75;100.00
41632;BME280;37452;51.938;4.624;2023-07-22T07:30:07;75940.44;;;-142.75;100.00
41632;BME280;37452;51.938;4.624;2023-07-22T07:32:34;75954.22;;;-142.75;100.00
41632;BME280;37452;51.938;4.624;2023-07-22T07:34:59;76001.44;;;-142.75;100.00
41632;BME280;37452;51.938;4.624;2023-07-22T07:37:24;76009.31;;;-142.75;100.00
41632;BME280;37452;51.938;4.624;2023-07-22T07:39:50;76019.16;;;-142.75;100.00
41632;BME280;37452;51.938;4.624;2023-07-22T07:42:15;76013.25;;;-142.75;100.00
41632;BME280;37452;51.938;4.624;2023-07-22T07:44:40;76003.41;;;-142.75;100.00
41632;BME280;37452;51.938;4.624;2023-07-22T07:47:06;76015.22;;;-142.75;100.00
41632;BME280;37452;51.938;4.624;2023-07-22T07:49:31;75983.72;;;-142.75;100.00
41632;BME280;37452;51.938;4.624;2023-07-22T07:51:56;75975.84;;;-142.75;100.00
41632;BME280;37452;51.938;4.624;2023-07-22T07:54:22;75960.13;;;-142.75;100.00
41632;BME280;37452;51.938;4.624;2023-07-22T07:56:47;75946.34;;;-142.75;100.00
41632;BME280;37452;51.938;4.624;2023-07-22T07:59:12;75928.63;;;-142.75;100.00
41632;BME280;37452;51.938;4.624;2023-07-22T08:01:38;75912.88;;;-142.75;100.00
41632;BME280;37452;51.938;4.624;2023-07-22T08:04:07;75928.63;;;-142.75;100.00
41632;BME280;37452;51.938;4.624;2023-07-22T08:06:32;75942.41;;;-142.75;100.00
41632;BME280;37452;51.938;4.624;2023-07-22T08:08:58;75928.63;;;-142.75;100.00
41632;BME280;37452;51.938;4.624;2023-07-22T08:11:24;75918.78;;;-142.75;100.00
41632;BME280;37452;51.938;4.624;2023-07-22T08:13:49;75930.59;;;-142.75;100.00
41632;BME280;37452;51.938;4.624;2023-07-22T08:16:16;75944.38;;;-142.75;100.00
41632;BME280;37452;51.938;4.624;2023-07-22T08:18:42;75920.75;;;-142.75;100.00
41632;BME280;37452;51.938;4.624;2023-07-22T08:21:09;75889.25;;;-142.75;100.00
41632;BME280;37452;51.938;4.624;2023-07-22T08:23:36;75851.88;;;-142.75;100.00
41632;BME280;37452;51.938;4.624;2023-07-22T08:26:02;75824.31;;;-142.75;100.00
41632;BME280;37452;51.938;4.624;2023-07-22T08:28:30;75871.53;;;-142.75;100.00
41632;BME280;37452;51.938;4.624;2023-07-22T08:30:56;75871.53;;;-142.75;100.00
41632;BME280;37452;51.938;4.624;2023-07-22T08:33:22;75905.00;;;-142.75;100.00
41632;BME280;37452;51.938;4.624;2023-07-22T08:35:48;75889.25;;;-142.75;100.00
41632;BME280;37452;51.938;4.624;2023-07-22T08:38:14;75916.81;;;-142.75;100.00
41632;BME280;37452;51.938;4.624;2023-07-22T08:40:40;75934.53;;;-142.75;100.00
41632;BME280;37452;51.938;4.624;2023-07-22T08:43:07;75905.00;;;-142.75;100.00
41632;BME280;37452;51.938;4.624;2023-07-22T08:45:34;75869.56;;;-142.75;100.00
41632;BME280;37452;51.938;4.624;2023-07-22T08:48:03;75853.84;;;-142.75;100.00
41632;BME280;37452;51.938;4.624;2023-07-22T08:50:41;75840.06;;;-142.75;100.00
41632;BME280;37452;51.938;4.624;2023-07-22T08:53:08;75845.97;;;-142.75;100.00
41632;BME280;37452;51.938;4.624;2023-07-22T08:55:35;75855.81;;;-142.75;100.00
41632;BME280;37452;51.938;4.624;2023-07-22T08:58:01;75881.38;;;-142.75;100.00
41632;BME280;37452;51.938;4.624;2023-07-22T09:00:27;75889.25;;;-142.75;100.00
41632;BME280;37452;51.938;4.624;2023-07-22T09:02:53;75930.59;;;-142.75;100.00
41632;BME280;37452;51.938;4.624;2023-07-22T09:05:19;75932.56;;;-142.75;100.00
41632;BME280;37452;51.938;4.624;2023-07-22T09:07:47;75879.41;;;-142.75;100.00
41632;BME280;37452;51.938;4.624;2023-07-22T09:10:14;75845.97;;;-142.75;100.00
41632;BME280;37452;51.938;4.624;2023-07-22T09:12:41;75893.19;;;-142.75;100.00
41632;BME280;37452;51.938;4.624;2023-07-22T09:15:11;75845.97;;;-142.75;100.00
41632;BME280;37452;51.938;4.624;2023-07-22T09:17:41;75861.69;;;-142.75;100.00
41632;BME280;37452;51.938;4.624;2023-07-22T09:20:07;75873.50;;;-142.75;100.00
41632;BME280;37452;51.938;4.624;2023-07-22T09:22:33;75810.53;;;-142.75;100.00
41632;BME280;37452;51.938;4.624;2023-07-22T09:25:23;75743.63;;;-142.75;100.00
41632;BME280;37452;51.938;4.624;2023-07-22T09:27:51;75723.94;;;-142.75;100.00
41632;BME280;37452;51.938;4.624;2023-07-22T09:32:59;75784.94;;;-142.75;100.00
41632;BME280;37452;51.938;4.624;2023-07-22T09:35:44;75786.91;;;-142.75;100.00
41632;BME280;37452;51.938;4.624;2023-07-22T09:38:09;75790.84;;;-142.75;100.00
41632;BME280;37452;51.938;4.624;2023-07-22T09:40:35;75816.44;;;-142.75;100.00
41632;BME280;37452;51.938;4.624;2023-07-22T09:43:01;75840.06;;;-142.75;100.00
41632;BME280;37452;51.938;4.624;2023-07-22T09:45:29;75861.69;;;-142.75;100.00
41632;BME280;37452;51.938;4.624;2023-07-22T09:47:55;75877.44;;;-142.75;100.00
41632;BME280;37452;51.938;4.624;2023-07-22T09:50:23;75883.34;;;-142.75;100.00
41632;BME280;37452;51.938;4.624;2023-07-22T09:52:59;75903.03;;;-142.75;100.00
41632;BME280;37452;51.938;4.624;2023-07-22T09:55:25;75883.34;;;-142.75;100.00
41632;BME280;37452;51.938;4.624;2023-07-22T09:58:01;75885.31;;;-142.75;100.00
41632;BME280;37452;51.938;4.624;2023-07-22T10:00:33;75936.50;;;-142.75;100.00
41632;BME280;37452;51.938;4.624;2023-07-22T10:03:00;75940.44;;;-142.75;100.00
41632;BME280;37452;51.938;4.624;2023-07-22T10:05:27;75960.13;;;-142.75;100.00
41632;BME280;37452;51.938;4.624;2023-07-22T10:07:58;75954.22;;;-142.75;100.00
41632;BME280;37452;51.938;4.624;2023-07-22T10:10:31;75940.44;;;-142.75;100.00
41632;BME280;37452;51.938;4.624;2023-07-22T10:12:57;75946.34;;;-142.75;100.00
41632;BME280;37452;51.938;4.624;2023-07-22T10:15:25;75952.25;;;-142.75;100.00
41632;BME280;37452;51.938;4.624;2023-07-22T10:17:51;75966.00;;;-142.75;100.00
41632;BME280;37452;51.938;4.624;2023-07-22T10:20:19;75977.81;;;-142.75;100.00
41632;BME280;37452;51.938;4.624;2023-07-22T10:22:46;75969.94;;;-142.75;100.00
41632;BME280;37452;51.938;4.624;2023-07-22T10:25:14;75954.22;;;-142.75;100.00
41632;BME280;37452;51.938;4.624;2023-07-22T10:27:40;75924.69;;;-142.75;100.00
41632;BME280;37452;51.938;4.624;2023-07-22T10:30:07;75938.47;;;-142.75;100.00
41632;BME280;37452;51.938;4.624;2023-07-22T10:32:35;75930.59;;;-142.75;100.00
41632;BME280;37452;51.938;4.624;2023-07-22T10:35:01;75936.50;;;-142.75;100.00
41632;BME280;37452;51.938;4.624;2023-07-22T10:37:33;75922.72;;;-142.75;100.00
41632;BME280;37452;51.938;4.624;2023-07-22T10:40:18;75908.94;;;-142.75;100.00
41632;BME280;37452;51.938;4.624;2023-07-22T10:42:51;75908.94;;;-142.75;100.00
41632;BME280;37452;51.938;4.624;2023-07-22T10:45:31;75893.19;;;-142.75;100.00
41632;BME280;37452;51.938;4.624;2023-07-22T10:48:09;75891.22;;;-142.75;100.00
41632;BME280;37452;51.938;4.624;2023-07-22T10:53:47;75895.16;;;-142.75;100.00
41632;BME280;37452;51.938;4.624;2023-07-22T10:56:21;75910.91;;;-142.75;100.00
41632;BME280;37452;51.938;4.624;2023-07-22T11:01:34;75869.56;;;-142.75;100.00
41632;BME280;37452;51.938;4.624;2023-07-22T11:06:29;75873.50;;;-142.75;100.00
41632;BME280;37452;51.938;4.624;2023-07-22T11:08:55;75881.38;;;-142.75;100.00
41632;BME280;37452;51.938;4.624;2023-07-22T11:11:20;75855.81;;;-142.75;100.00
41632;BME280;37452;51.938;4.624;2023-07-22T11:13:46;75871.53;;;-142.75;100.00
41632;BME280;37452;51.938;4.624;2023-07-22T11:16:11;75859.72;;;-142.75;100.00
41632;BME280;37452;51.938;4.624;2023-07-22T11:18:38;75861.69;;;-142.75;100.00
41632;BME280;37452;51.938;4.624;2023-07-22T11:21:09;75853.84;;;-142.75;100.00
41632;BME280;37452;51.938;4.624;2023-07-22T11:23:34;75867.59;;;-142.75;100.00
41632;BME280;37452;51.938;4.624;2023-07-22T11:26:01;75838.09;;;-142.75;100.00
41632;BME280;37452;51.938;4.624;2023-07-22T11:28:27;75826.28;;;-142.75;100.00
41632;BME280;37452;51.938;4.624;2023-07-22T11:30:52;75824.31;;;-142.75;100.00
41632;BME280;37452;51.938;4.624;2023-07-22T11:33:18;75847.94;;;-142.75;100.00
41632;BME280;37452;51.938;4.624;2023-07-22T11:35:44;75853.84;;;-142.75;100.00
41632;BME280;37452;51.938;4.624;2023-07-22T11:38:12;75830.22;;;-142.75;100.00
41632;BME280;37452;51.938;4.624;2023-07-22T11:40:37;75838.09;;;-142.75;100.00
41632;BME280;37452;51.938;4.624;2023-07-22T11:43:03;75851.88;;;-142.75;100.00
41632;BME280;37452;51.938;4.624;2023-07-22T11:45:28;75849.91;;;-142.75;100.00
41632;BME280;37452;51.938;4.624;2023-07-22T11:47:54;75840.06;;;-142.75;100.00
41632;BME280;37452;51.938;4.624;2023-07-22T11:50:31;75810.53;;;-142.75;100.00
41632;BME280;37452;51.938;4.624;2023-07-22T11:52:57;75826.28;;;-142.75;100.00
41632;BME280;37452;51.938;4.624;2023-07-22T11:55:23;75849.91;;;-142.75;100.00
41632;BME280;37452;51.938;4.624;2023-07-22T11:57:52;75873.50;;;-142.75;100.00
41632;BME280;37452;51.938;4.624;2023-07-22T12:00:18;75893.19;;;-142.75;100.00
41632;BME280;37452;51.938;4.624;2023-07-22T12:02:44;75889.25;;;-142.75;100.00
41632;BME280;37452;51.938;4.624;2023-07-22T12:05:09;75914.84;;;-142.75;100.00
41632;BME280;37452;51.938;4.624;2023-07-22T12:07:36;75899.09;;;-142.75;100.00
41632;BME280;37452;51.938;4.624;2023-07-22T12:10:06;75873.50;;;-142.75;100.00
41632;BME280;37452;51.938;4.624;2023-07-22T12:12:33;75873.50;;;-142.75;100.00
41632;BME280;37452;51.938;4.624;2023-07-22T12:15:21;75826.28;;;-142.75;100.00
41632;BME280;37452;51.938;4.624;2023-07-22T12:17:51;75853.84;;;-142.75;100.00
41632;BME280;37452;51.938;4.624;2023-07-22T12:20:17;75857.78;;;-142.75;100.00
41632;BME280;37452;51.938;4.624;2023-07-22T12:22:43;75881.38;;;-142.75;100.00
41632;BME280;37452;51.938;4.624;2023-07-22T12:25:08;75936.50;;;-142.75;100.00
41632;BME280;37452;51.938;4.624;2023-07-22T12:27:34;75952.25;;;-142.75;100.00
41632;BME280;37452;51.938;4.624;2023-07-22T12:29:59;75967.97;;;-142.75;100.00
41632;BME280;37452;51.938;4.624;2023-07-22T12:32:24;75995.53;;;-142.75;100.00
41632;BME280;37452;51.938;4.624;2023-07-22T12:34:50;75995.53;;;-142.75;100.00
41632;BME280;37452;51.938;4.624;2023-07-22T12:37:15;75995.53;;;-142.75;100.00